createdAt,value
2022-11-17T00:07:24.490Z,39.53
2022-11-17T00:18:16.623Z,44.33
2022-11-17T00:28:37.812Z,37.25
2022-11-17T00:39:00.594Z,31.55
2022-11-17T00:49:25.146Z,44.35
2022-11-17T00:59:47.999Z,31.83
2022-11-17T01:10:11.198Z,39.20
2022-11-17T01:32:45.345Z,43.03
2022-11-17T01:54:12.375Z,25.92
2022-11-17T02:05:04.776Z,27.38
2022-11-17T02:27:31.568Z,31.17
2022-11-17T02:38:02.088Z,26.30
2022-11-17T02:48:29.244Z,45.85
2022-11-17T03:09:22.707Z,27.08
2022-11-17T03:19:47.138Z,41.53
2022-11-17T03:30:11.684Z,44.08
2022-11-17T03:40:35.252Z,39.30
2022-11-17T04:02:32.755Z,37.38
2022-11-17T04:13:14.377Z,37.35
2022-11-17T04:23:39.985Z,38.03
2022-11-17T04:34:21.164Z,32.72
2022-11-17T04:44:47.225Z,34.03
2022-11-17T04:55:12.858Z,39.25
2022-11-17T05:05:34.868Z,35.88
2022-11-17T05:16:19.221Z,49.65
2022-11-17T05:26:41.128Z,45.05
2022-11-17T05:37:04.881Z,33.42
2022-11-17T05:47:26.985Z,38.97
2022-11-17T05:57:51.522Z,33.65
2022-11-17T06:08:13.167Z,37.70
2022-11-17T06:18:42.970Z,36.55
2022-11-17T06:29:06.021Z,39.03
2022-11-17T06:39:28.864Z,43.90
2022-11-17T06:49:51.185Z,29.35
2022-11-17T07:00:16.186Z,38.10
2022-11-17T07:10:38.821Z,32.08
2022-11-17T07:21:04.844Z,27.30
2022-11-17T07:31:30.937Z,25.08
2022-11-17T07:41:58.886Z,28.05
2022-11-17T07:52:25.405Z,30.73
2022-11-17T08:02:55.398Z,27.67
2022-11-17T08:13:26.727Z,29.50
2022-11-17T08:24:02.017Z,37.72
2022-11-17T08:34:24.931Z,23.45
2022-11-17T08:44:50.250Z,35.78
2022-11-17T08:55:14.488Z,32.72
2022-11-17T09:05:44.815Z,25.05
2022-11-17T09:16:09.447Z,38.58
2022-11-17T09:26:32.314Z,35.30
2022-11-17T09:36:57.659Z,53.03
2022-11-17T09:47:33.253Z,38.17
2022-11-17T09:58:04.566Z,44.07
2022-11-17T10:08:34.561Z,51.78
2022-11-17T10:18:57.080Z,43.53
2022-11-17T10:29:23.870Z,38.78
2022-11-17T10:39:45.674Z,47.13
2022-11-17T10:50:19.151Z,34.40
2022-11-17T11:00:40.878Z,38.83
2022-11-17T11:11:16.981Z,50.92
2022-11-17T11:21:50.738Z,32.83
2022-11-17T11:32:25.698Z,28.20
2022-11-17T11:42:57.669Z,38.28
2022-11-17T11:53:26.151Z,37.80
2022-11-17T12:03:57.826Z,42.47
2022-11-17T12:14:20.728Z,28.00
2022-11-17T12:24:44.250Z,33.80
2022-11-17T12:35:26.645Z,28.35
2022-11-17T12:46:16.929Z,29.20
2022-11-17T12:56:47.526Z,32.33
2022-11-17T13:07:19.757Z,36.50
2022-11-17T13:17:44.265Z,38.70
2022-11-17T13:28:06.809Z,30.27
2022-11-17T13:38:29.569Z,26.85
2022-11-17T13:48:51.712Z,32.80
2022-11-17T13:59:27.566Z,31.25
2022-11-17T14:09:49.425Z,34.20
2022-11-17T14:20:33.194Z,23.83
2022-11-17T14:30:57.838Z,37.83
2022-11-17T14:41:23.548Z,29.35
2022-11-17T14:51:49.189Z,28.33
2022-11-17T15:02:12.749Z,29.88
2022-11-17T15:12:36.750Z,33.28
2022-11-17T15:23:03.249Z,32.25
2022-11-17T15:33:25.029Z,32.83
2022-11-17T15:43:49.264Z,34.72
2022-11-17T16:06:12.417Z,30.40
2022-11-17T16:16:37.893Z,41.88
2022-11-17T16:27:01.148Z,42.65
2022-11-17T16:37:22.639Z,47.72
2022-11-17T16:47:45.127Z,58.55
2022-11-17T16:58:07.957Z,44.10
2022-11-17T17:08:30.934Z,47.78
2022-11-17T17:18:55.793Z,31.52
2022-11-17T17:29:18.933Z,51.42
2022-11-17T17:39:40.867Z,35.08
2022-11-17T17:50:03.502Z,48.50
2022-11-17T18:00:24.952Z,48.47
2022-11-17T18:10:52.361Z,51.17
2022-11-17T18:21:17.183Z,60.95
2022-11-17T18:31:47.627Z,61.40
2022-11-17T18:42:23.272Z,73.85
2022-11-17T18:52:57.115Z,63.83
2022-11-17T19:03:50.617Z,67.82
2022-11-17T19:14:13.802Z,54.15
2022-11-17T19:24:35.810Z,63.58
2022-11-17T19:35:09.620Z,53.50
2022-11-17T19:45:35.427Z,72.40
2022-11-17T19:56:01.540Z,54.78
2022-11-17T20:18:17.795Z,79.25
2022-11-17T20:28:45.183Z,73.55
2022-11-17T20:39:34.497Z,79.22
2022-11-17T20:51:02.282Z,89.15
2022-11-17T21:01:56.916Z,53.78
2022-11-17T21:13:06.637Z,69.35
2022-11-17T21:24:09.420Z,82.85
2022-11-17T21:34:31.111Z,49.58
2022-11-17T21:45:20.409Z,61.65
2022-11-17T21:55:41.844Z,56.17
2022-11-17T22:06:13.596Z,65.00
2022-11-17T22:16:35.970Z,50.63
2022-11-17T22:26:58.977Z,61.05
2022-11-17T22:37:20.728Z,102.22
2022-11-17T22:47:43.425Z,47.60
2022-11-17T22:58:07.032Z,68.30
2022-11-17T23:08:29.826Z,89.57
2022-11-17T23:18:53.560Z,71.53
2022-11-17T23:29:16.506Z,82.53
2022-11-17T23:39:38.289Z,76.35
2022-11-17T23:50:02.918Z,82.07
